createdAt,value
2018-05-03T00:01:40.748Z,96257.33
2018-05-03T00:04:09.890Z,96249.75
2018-05-03T00:06:38.014Z,96243.41
2018-05-03T00:09:06.152Z,96244.23
2018-05-03T00:11:36.787Z,96236.61
2018-05-03T00:14:04.757Z,96237.86
2018-05-03T00:16:35.700Z,96234.91
2018-05-03T00:19:05.532Z,96239.16
2018-05-03T00:21:34.056Z,96245.13
2018-05-03T00:24:02.163Z,96237.94
2018-05-03T00:26:30.217Z,96235.78
2018-05-03T00:28:58.220Z,96220.90
2018-05-03T00:31:28.870Z,96213.66
2018-05-03T00:33:56.938Z,96211.52
2018-05-03T00:36:24.906Z,96208.62
2018-05-03T00:38:52.986Z,96200.63
2018-05-03T00:41:20.944Z,96206.14
2018-05-03T00:43:52.884Z,96208.30
2018-05-03T00:46:21.810Z,96215.94
2018-05-03T00:48:50.504Z,96209.16
2018-05-03T00:51:18.479Z,96209.22
2018-05-03T00:53:46.449Z,96202.06
2018-05-03T00:56:14.417Z,96203.38
2018-05-03T00:58:45.269Z,96205.97
2018-05-03T01:01:13.033Z,96201.33
2018-05-03T01:03:40.941Z,96195.38
2018-05-03T01:06:11.349Z,96192.03
2018-05-03T01:08:39.300Z,96199.77
2018-05-03T01:11:08.801Z,96196.44
2018-05-03T01:13:36.794Z,96199.00
2018-05-03T01:16:04.751Z,96201.55
2018-05-03T01:18:32.942Z,96217.27
2018-05-03T01:21:00.797Z,96224.89
2018-05-03T01:23:28.874Z,96229.16
2018-05-03T01:25:56.844Z,96225.28
2018-05-03T01:28:24.805Z,96211.28
2018-05-03T01:30:52.903Z,96207.94
2018-05-03T01:33:20.883Z,96201.58
2018-05-03T01:36:01.659Z,96206.24
2018-05-03T01:38:29.720Z,96206.64
2018-05-03T01:40:58.276Z,96201.59
2018-05-03T01:43:26.575Z,96213.08
2018-05-03T01:45:54.651Z,96218.56
2018-05-03T01:48:22.500Z,96224.06
2018-05-03T01:50:50.471Z,96221.97
2018-05-03T01:53:18.232Z,96233.39
2018-05-03T01:55:47.842Z,96234.23
2018-05-03T01:58:15.845Z,96234.70
2018-05-03T02:00:43.832Z,96240.61
2018-05-03T02:03:12.001Z,96244.42
2018-05-03T02:05:39.965Z,96246.08
2018-05-03T02:08:09.022Z,96251.20
2018-05-03T02:10:37.027Z,96255.44
2018-05-03T02:13:04.907Z,96258.42
2018-05-03T02:15:32.890Z,96266.55
2018-05-03T02:18:00.970Z,96265.34
2018-05-03T02:20:29.005Z,96275.17
2018-05-03T02:22:57.126Z,96277.36
2018-05-03T02:25:26.625Z,96284.58
2018-05-03T02:27:54.435Z,96293.08
2018-05-03T02:30:22.293Z,96303.66
2018-05-03T02:32:53.088Z,96311.30
2018-05-03T02:35:22.205Z,96319.37
2018-05-03T02:37:50.246Z,96318.97
2018-05-03T02:40:18.235Z,96318.09
2018-05-03T02:42:47.244Z,96314.72
2018-05-03T02:45:15.006Z,96315.96
2018-05-03T02:47:44.010Z,96310.00
2018-05-03T02:50:12.080Z,96315.52
2018-05-03T02:52:40.146Z,96312.52
2018-05-03T02:55:09.157Z,96308.28
2018-05-03T02:57:54.516Z,96306.58
2018-05-03T03:00:41.060Z,96310.84
2018-05-03T03:03:26.595Z,96315.95
2018-05-03T03:06:09.311Z,96313.86
2018-05-03T03:22:47.262Z,96295.75
2018-05-03T03:29:06.789Z,96311.00
2018-05-03T03:31:52.062Z,96323.79
2018-05-03T03:34:21.994Z,96336.09
2018-05-03T03:37:26.751Z,96335.27
2018-05-03T03:43:21.797Z,96330.62
2018-05-03T03:45:53.177Z,96331.05
2018-05-03T03:48:21.323Z,96332.31
2018-05-03T03:50:49.194Z,96335.28
2018-05-03T03:53:18.279Z,96331.86
2018-05-03T03:55:46.368Z,96325.94
2018-05-03T03:58:14.342Z,96325.05
2018-05-03T04:00:42.307Z,96329.28
2018-05-03T04:03:10.293Z,96320.78
2018-05-03T04:05:38.360Z,96327.55
2018-05-03T04:08:05.989Z,96322.48
2018-05-03T04:10:34.098Z,96319.91
2018-05-03T04:13:02.081Z,96320.73
2018-05-03T04:15:31.938Z,96324.12
2018-05-03T04:18:11.532Z,96330.04
2018-05-03T04:21:03.138Z,96330.47
2018-05-03T04:23:43.114Z,96338.91
2018-05-03T04:26:12.039Z,96331.27
2018-05-03T04:28:40.062Z,96331.67
2018-05-03T04:31:08.705Z,96337.56
2018-05-03T04:33:36.810Z,96343.05
2018-05-03T04:36:04.902Z,96343.84
2018-05-03T04:38:32.865Z,96345.91
2018-05-03T04:41:00.954Z,96341.20
2018-05-03T04:43:28.913Z,96333.95
2018-05-03T04:45:57.486Z,96333.92
2018-05-03T04:48:25.583Z,96324.16
2018-05-03T04:50:53.651Z,96316.09
2018-05-03T04:53:21.634Z,96313.48
2018-05-03T04:55:53.098Z,96313.82
2018-05-03T04:58:21.020Z,96317.53
2018-05-03T05:00:49.029Z,96319.55
2018-05-03T05:03:16.990Z,96332.21
2018-05-03T05:05:45.072Z,96342.80
2018-05-03T05:08:13.086Z,96344.08
2018-05-03T05:10:41.216Z,96355.48
2018-05-03T05:13:09.308Z,96359.30
2018-05-03T05:15:38.090Z,96360.91
2018-05-03T05:18:05.672Z,96358.72
2018-05-03T05:20:33.626Z,96363.80
2018-05-03T05:23:01.716Z,96369.34
2018-05-03T05:25:30.673Z,96363.39
2018-05-03T05:27:58.784Z,96368.89
2018-05-03T05:30:26.763Z,96369.70
2018-05-03T05:32:54.834Z,96369.28
2018-05-03T05:35:22.810Z,96370.47
2018-05-03T05:37:50.758Z,96371.20
2018-05-03T05:40:18.846Z,96382.95
2018-05-03T05:42:47.031Z,96384.92
2018-05-03T05:45:14.827Z,96389.48
2018-05-03T05:47:43.896Z,96394.48
2018-05-03T05:50:11.984Z,96394.79
2018-05-03T05:52:46.493Z,96390.94
2018-05-03T05:55:14.660Z,96403.57
2018-05-03T05:57:42.735Z,96403.12
2018-05-03T06:00:10.722Z,96402.96
2018-05-03T06:02:38.610Z,96401.58
2018-05-03T06:05:06.668Z,96398.49
2018-05-03T06:07:34.740Z,96405.59
2018-05-03T06:10:05.584Z,96398.72
2018-05-03T06:12:33.551Z,96410.18
2018-05-03T06:15:01.613Z,96400.36
2018-05-03T06:17:30.259Z,96406.23
2018-05-03T06:19:58.404Z,96404.81
2018-05-03T06:22:29.384Z,96403.94
2018-05-03T06:24:57.614Z,96400.38
2018-05-03T06:27:25.588Z,96405.76
2018-05-03T06:29:53.655Z,96403.93
2018-05-03T06:32:22.153Z,96398.39
2018-05-03T06:34:50.235Z,96394.56
2018-05-03T06:37:18.389Z,96401.31
2018-05-03T06:39:51.674Z,96398.69
2018-05-03T06:42:19.693Z,96404.75
2018-05-03T06:44:50.509Z,96402.23
2018-05-03T06:47:18.581Z,96406.13
2018-05-03T06:49:46.537Z,96410.28
2018-05-03T06:52:15.564Z,96405.61
2018-05-03T06:54:44.713Z,96404.52
2018-05-03T06:57:12.709Z,96406.16
2018-05-03T06:59:44.293Z,96409.48
2018-05-03T07:02:12.767Z,96415.34
2018-05-03T07:04:40.837Z,96420.00
2018-05-03T07:07:08.381Z,96421.63
2018-05-03T07:09:36.590Z,96423.23
2018-05-03T07:12:09.165Z,96423.98
2018-05-03T07:14:38.564Z,96428.61
2018-05-03T07:17:06.536Z,96423.32
2018-05-03T07:19:35.527Z,96419.30
2018-05-03T07:22:05.141Z,96418.84
2018-05-03T07:24:33.075Z,96417.73
2018-05-03T07:27:03.864Z,96415.52
2018-05-03T07:29:32.937Z,96416.09
2018-05-03T07:32:01.002Z,96424.20
2018-05-03T07:34:29.013Z,96433.87
2018-05-03T07:36:59.045Z,96435.39
2018-05-03T07:39:26.965Z,96429.77
2018-05-03T07:41:54.867Z,96437.25
2018-05-03T07:44:22.860Z,96443.42
2018-05-03T07:46:54.833Z,96454.09
2018-05-03T07:49:23.872Z,96450.55
2018-05-03T07:51:54.708Z,96453.95
2018-05-03T07:54:24.048Z,96452.88
2018-05-03T07:56:52.179Z,96455.45
2018-05-03T07:59:25.331Z,96457.28
2018-05-03T08:01:54.669Z,96456.34
2018-05-03T08:04:23.726Z,96464.57
2018-05-03T08:06:51.705Z,96464.12
2018-05-03T08:09:19.786Z,96466.07
2018-05-03T08:11:51.790Z,96463.22
2018-05-03T08:14:19.755Z,96467.13
2018-05-03T08:16:47.800Z,96459.48
2018-05-03T08:19:15.858Z,96455.82
2018-05-03T08:21:45.963Z,96462.34
2018-05-03T08:24:13.959Z,96466.61
2018-05-03T08:26:42.016Z,96468.98
2018-05-03T08:29:10.039Z,96462.14
2018-05-03T08:31:38.079Z,96474.21
2018-05-03T08:34:06.090Z,96465.05
2018-05-03T08:36:36.910Z,96467.09
2018-05-03T08:39:06.362Z,96471.88
2018-05-03T08:41:35.585Z,96472.06
2018-05-03T08:44:06.228Z,96477.00
2018-05-03T08:46:34.991Z,96475.81
2018-05-03T08:49:03.001Z,96480.52
2018-05-03T08:51:32.008Z,96484.44
2018-05-03T08:53:59.980Z,96479.39
2018-05-03T08:56:28.270Z,96487.70
2018-05-03T08:58:57.349Z,96484.80
2018-05-03T09:01:27.152Z,96488.41
2018-05-03T09:03:54.685Z,96486.36
2018-05-03T09:06:22.711Z,96491.97
2018-05-03T09:08:50.792Z,96487.16
2018-05-03T09:11:18.972Z,96494.14
2018-05-03T09:13:47.034Z,96489.17
2018-05-03T09:16:14.598Z,96491.09
2018-05-03T09:18:43.289Z,96489.23
2018-05-03T09:21:11.365Z,96491.38
2018-05-03T09:23:39.441Z,96491.64
2018-05-03T09:26:07.407Z,96495.67
2018-05-03T09:28:35.275Z,96494.45
2018-05-03T09:31:06.027Z,96501.34
2018-05-03T09:33:34.072Z,96501.19
2018-05-03T09:36:03.118Z,96494.54
2018-05-03T09:38:31.063Z,96502.52
2018-05-03T09:40:59.151Z,96503.16
2018-05-03T09:43:28.611Z,96506.68
2018-05-03T09:45:56.634Z,96506.08
2018-05-03T09:48:24.611Z,96511.45
2018-05-03T09:50:55.452Z,96505.23
2018-05-03T09:53:23.524Z,96509.14
2018-05-03T09:55:51.613Z,96505.78
2018-05-03T09:58:19.666Z,96506.27
2018-05-03T10:00:47.650Z,96510.64
2018-05-03T10:03:16.425Z,96501.01
2018-05-03T10:05:44.304Z,96506.04
2018-05-03T10:08:13.077Z,96499.98
2018-05-03T10:10:41.166Z,96491.53
2018-05-03T10:13:09.429Z,96490.81
2018-05-03T10:15:37.308Z,96493.46
2018-05-03T10:18:05.273Z,96490.83
2018-05-03T10:20:33.990Z,96486.80
2018-05-03T10:23:03.593Z,96487.95
2018-05-03T10:25:31.579Z,96480.59
2018-05-03T10:27:59.440Z,96481.83
2018-05-03T10:30:27.567Z,96482.00
2018-05-03T10:32:55.604Z,96479.61
2018-05-03T10:35:23.945Z,96480.77
2018-05-03T10:37:53.085Z,96476.11
2018-05-03T10:40:23.828Z,96475.55
2018-05-03T10:42:51.769Z,96467.56
2018-05-03T10:45:19.971Z,96468.16
2018-05-03T10:47:47.929Z,96467.32
2018-05-03T10:50:16.027Z,96465.56
2018-05-03T10:52:43.986Z,96470.31
2018-05-03T10:55:12.068Z,96463.87
2018-05-03T10:57:42.586Z,96471.69
2018-05-03T11:00:10.789Z,96469.14
2018-05-03T11:02:38.869Z,96463.22
2018-05-03T11:05:06.823Z,96462.95
2018-05-03T11:07:37.561Z,96463.19
2018-05-03T11:10:05.530Z,96464.73
2018-05-03T11:12:33.498Z,96466.88
2018-05-03T11:15:01.481Z,96466.52
2018-05-03T11:17:29.452Z,96472.40
2018-05-03T11:19:57.445Z,96463.48
2018-05-03T11:22:25.498Z,96458.96
2018-05-03T11:24:53.572Z,96459.84
2018-05-03T11:27:22.572Z,96451.72
2018-05-03T11:29:50.617Z,96458.91
2018-05-03T11:32:18.731Z,96463.35
2018-05-03T11:34:46.497Z,96460.84
2018-05-03T11:37:14.664Z,96467.45
2018-05-03T11:39:42.640Z,96462.72
2018-05-03T11:42:10.622Z,96466.18
2018-05-03T11:44:38.601Z,96460.54
2018-05-03T11:47:06.211Z,96461.71
2018-05-03T11:49:34.317Z,96463.24
2018-05-03T11:52:03.029Z,96461.92
2018-05-03T11:54:31.149Z,96462.49
2018-05-03T11:57:01.226Z,96460.78
2018-05-03T11:59:29.280Z,96461.12
2018-05-03T12:01:59.948Z,96466.08
2018-05-03T12:04:27.923Z,96467.30
2018-05-03T12:06:55.888Z,96457.62
2018-05-03T12:09:24.073Z,96469.53
2018-05-03T12:11:52.154Z,96472.76
2018-05-03T12:14:20.216Z,96471.31
2018-05-03T12:16:48.168Z,96475.22
2018-05-03T12:19:16.173Z,96473.14
2018-05-03T12:21:44.099Z,96476.42
2018-05-03T12:24:12.220Z,96483.68
2018-05-03T12:26:40.699Z,96484.08
2018-05-03T12:29:09.089Z,96483.77
2018-05-03T12:31:37.155Z,96483.47
2018-05-03T12:34:05.243Z,96488.56
2018-05-03T12:36:34.967Z,96488.75
2018-05-03T12:39:03.023Z,96486.11
2018-05-03T12:41:30.992Z,96484.45
2018-05-03T12:43:59.078Z,96484.16
2018-05-03T12:46:27.254Z,96486.92
2018-05-03T12:48:57.830Z,96487.41
2018-05-03T12:51:25.882Z,96481.60
2018-05-03T12:53:54.046Z,96489.26
2018-05-03T12:56:22.012Z,96486.13
2018-05-03T12:58:50.091Z,96481.39
2018-05-03T13:01:19.816Z,96485.56
2018-05-03T13:03:47.788Z,96477.34
2018-05-03T13:06:15.958Z,96489.13
2018-05-03T13:08:44.149Z,96481.31
2018-05-03T13:11:12.170Z,96479.71
2018-05-03T13:13:41.831Z,96481.75
2018-05-03T13:16:10.103Z,96484.09
2018-05-03T13:18:38.038Z,96485.34
2018-05-03T13:21:06.159Z,96484.77
2018-05-03T13:23:35.254Z,96480.61
2018-05-03T13:26:03.327Z,96486.98
2018-05-03T13:28:31.355Z,96475.98
2018-05-03T13:31:00.518Z,96472.19
2018-05-03T13:33:31.243Z,96464.63
2018-05-03T13:35:59.202Z,96466.39
2018-05-03T13:38:27.109Z,96466.77
2018-05-03T13:40:57.723Z,96470.93
2018-05-03T13:43:30.073Z,96471.17
2018-05-03T13:46:00.820Z,96477.41
2018-05-03T13:48:28.806Z,96470.77
2018-05-03T13:50:56.882Z,96474.43
2018-05-03T13:53:25.606Z,96469.91
2018-05-03T13:55:53.533Z,96469.74
2018-05-03T13:58:21.375Z,96465.77
2018-05-03T14:00:49.177Z,96472.78
2018-05-03T14:03:16.994Z,96471.02
2018-05-03T14:05:45.027Z,96473.98
2018-05-03T14:08:12.877Z,96474.66
2018-05-03T14:10:41.663Z,96474.94
2018-05-03T14:13:09.432Z,96472.86
2018-05-03T14:15:37.355Z,96477.20
2018-05-03T14:18:05.202Z,96469.34
2018-05-03T14:20:33.024Z,96474.26
2018-05-03T14:23:00.895Z,96470.89
2018-05-03T14:25:28.725Z,96467.83
2018-05-03T14:27:56.471Z,96468.25
2018-05-03T14:30:24.277Z,96464.98
2018-05-03T14:32:52.153Z,96459.59
2018-05-03T14:35:19.653Z,96454.77
2018-05-03T14:37:47.414Z,96456.61
2018-05-03T14:40:15.141Z,96461.55
2018-05-03T14:42:42.641Z,96455.62
2018-05-03T14:45:10.499Z,96454.75
2018-05-03T14:47:38.339Z,96455.92
2018-05-03T14:50:06.190Z,96463.34
2018-05-03T14:52:34.040Z,96458.05
2018-05-03T14:55:01.874Z,96458.41
2018-05-03T14:57:29.536Z,96460.98
2018-05-03T14:59:57.429Z,96451.13
2018-05-03T15:02:25.301Z,96447.73
2018-05-03T15:04:52.889Z,96452.53
2018-05-03T15:07:20.627Z,96449.80
2018-05-03T15:09:48.431Z,96451.03
2018-05-03T15:12:16.112Z,96454.91
2018-05-03T15:14:43.975Z,96454.97
2018-05-03T15:17:11.732Z,96454.56
2018-05-03T15:19:39.515Z,96453.61
2018-05-03T15:22:07.319Z,96452.22
2018-05-03T15:24:35.073Z,96464.16
2018-05-03T15:27:02.886Z,96463.67
2018-05-03T15:29:30.773Z,96470.83
2018-05-03T15:31:58.613Z,96468.39
2018-05-03T15:34:26.485Z,96471.87
2018-05-03T15:36:54.312Z,96485.39
2018-05-03T15:39:22.024Z,96494.03
2018-05-03T15:41:49.903Z,96495.56
2018-05-03T15:44:17.790Z,96489.16
2018-05-03T15:46:45.630Z,96494.20
2018-05-03T15:49:13.514Z,96503.65
2018-05-03T15:51:41.283Z,96502.58
2018-05-03T15:54:09.088Z,96509.03
2018-05-03T15:56:36.912Z,96506.83
2018-05-03T15:59:04.560Z,96503.76
2018-05-03T16:01:32.471Z,96507.42
2018-05-03T16:04:00.333Z,96504.60
2018-05-03T16:06:28.185Z,96513.67
2018-05-03T16:08:56.028Z,96515.11
2018-05-03T16:11:23.699Z,96509.91
2018-05-03T16:13:51.535Z,96513.78
2018-05-03T16:16:19.346Z,96518.56
2018-05-03T16:18:47.102Z,96508.67
2018-05-03T16:21:14.913Z,96519.06
2018-05-03T16:23:42.725Z,96518.27
2018-05-03T16:26:10.525Z,96514.04
2018-05-03T16:28:38.358Z,96521.81
2018-05-03T16:31:06.168Z,96518.56
2018-05-03T16:33:33.981Z,96515.27
2018-05-03T16:36:01.642Z,96517.08
2018-05-03T16:38:29.461Z,96523.98
2018-05-03T16:40:57.247Z,96521.09
2018-05-03T16:43:25.096Z,96523.25
2018-05-03T16:45:52.920Z,96528.55
2018-05-03T16:48:20.942Z,96525.18
2018-05-03T16:50:48.878Z,96525.50
2018-05-03T16:53:16.657Z,96529.34
2018-05-03T16:55:44.494Z,96519.98
2018-05-03T16:58:12.329Z,96527.06
2018-05-03T17:00:40.070Z,96526.67
2018-05-03T17:03:07.913Z,96525.40
2018-05-03T17:05:35.708Z,96525.08
2018-05-03T17:08:03.507Z,96526.09
2018-05-03T17:10:31.325Z,96525.44
2018-05-03T17:12:59.131Z,96535.30
2018-05-03T17:15:26.955Z,96533.58
2018-05-03T17:17:54.789Z,96539.52
2018-05-03T17:20:22.606Z,96539.04
2018-05-03T17:22:50.440Z,96551.05
2018-05-03T17:25:18.240Z,96546.00
2018-05-03T17:27:46.067Z,96548.67
2018-05-03T17:30:13.804Z,96543.16
2018-05-03T17:32:41.617Z,96542.45
2018-05-03T17:35:09.465Z,96543.03
2018-05-03T17:37:37.237Z,96538.90
2018-05-03T17:40:05.383Z,96539.16
2018-05-03T17:42:33.170Z,96541.02
2018-05-03T17:45:01.072Z,96534.72
2018-05-03T17:47:28.817Z,96534.48
2018-05-03T17:49:56.689Z,96540.10
2018-05-03T17:52:24.530Z,96538.52
2018-05-03T17:54:52.340Z,96539.95
2018-05-03T17:57:20.141Z,96550.75
2018-05-03T17:59:47.985Z,96545.66
2018-05-03T18:02:15.907Z,96553.55
2018-05-03T18:04:43.581Z,96546.93
2018-05-03T18:07:11.393Z,96557.20
2018-05-03T18:09:39.196Z,96558.20
2018-05-03T18:12:07.057Z,96561.41
2018-05-03T18:14:34.932Z,96564.45
2018-05-03T18:17:02.748Z,96568.42
2018-05-03T18:19:30.576Z,96574.93
2018-05-03T18:21:58.458Z,96575.14
2018-05-03T18:24:26.218Z,96575.27
2018-05-03T18:26:54.834Z,96589.03
2018-05-03T18:29:22.771Z,96593.40
2018-05-03T18:31:50.634Z,96588.39
2018-05-03T18:34:18.497Z,96595.70
2018-05-03T18:36:46.390Z,96604.33
2018-05-03T18:39:14.217Z,96608.26
2018-05-03T18:41:42.148Z,96613.50
2018-05-03T18:44:11.034Z,96619.56
2018-05-03T18:46:38.947Z,96620.85
2018-05-03T18:49:06.729Z,96626.48
2018-05-03T18:51:34.551Z,96632.97
2018-05-03T18:54:02.098Z,96646.28
2018-05-03T18:56:29.632Z,96648.96
2018-05-03T18:58:57.466Z,96654.16
2018-05-03T19:01:25.014Z,96663.59
2018-05-03T19:03:52.689Z,96666.66
2018-05-03T19:06:20.460Z,96663.73
2018-05-03T19:08:48.022Z,96668.47
2018-05-03T19:11:15.514Z,96672.77
2018-05-03T19:13:43.043Z,96665.59
2018-05-03T19:16:10.618Z,96668.64
2018-05-03T19:18:38.496Z,96674.27
2018-05-03T19:21:06.391Z,96673.88
2018-05-03T19:23:34.277Z,96674.30
2018-05-03T19:26:02.115Z,96678.60
2018-05-03T19:28:29.932Z,96678.17
2018-05-03T19:30:57.772Z,96679.49
2018-05-03T19:33:25.651Z,96676.50
2018-05-03T19:35:53.451Z,96685.08
2018-05-03T19:38:21.342Z,96681.66
2018-05-03T19:40:49.123Z,96685.96
2018-05-03T19:43:16.903Z,96679.55
2018-05-03T19:45:44.810Z,96687.28
2018-05-03T19:48:12.629Z,96696.31
2018-05-03T19:50:40.469Z,96697.16
2018-05-03T19:53:09.704Z,96696.77
2018-05-03T19:55:37.578Z,96696.83
2018-05-03T19:58:05.382Z,96696.86
2018-05-03T20:00:33.160Z,96696.08
2018-05-03T20:03:01.645Z,96702.51
2018-05-03T20:05:29.543Z,96698.27
2018-05-03T20:07:57.308Z,96697.02
2018-05-03T20:10:24.899Z,96702.97
2018-05-03T20:12:52.718Z,96703.00
2018-05-03T20:15:20.708Z,96703.42
2018-05-03T20:17:48.437Z,96693.61
2018-05-03T20:20:17.046Z,96701.72
2018-05-03T20:22:44.900Z,96697.02
2018-05-03T20:25:12.779Z,96700.89
2018-05-03T20:27:40.546Z,96695.38
2018-05-03T20:30:08.313Z,96687.66
2018-05-03T20:32:36.164Z,96683.86
2018-05-03T20:35:03.989Z,96677.06
2018-05-03T20:37:31.624Z,96672.36
2018-05-03T20:39:59.519Z,96679.22
2018-05-03T20:42:27.368Z,96681.78
2018-05-03T20:44:55.205Z,96676.66
2018-05-03T20:47:22.996Z,96672.82
2018-05-03T20:49:50.841Z,96671.17
2018-05-03T20:52:19.729Z,96663.46
2018-05-03T20:54:47.554Z,96663.89
2018-05-03T20:57:15.364Z,96667.30
2018-05-03T20:59:44.342Z,96659.66
2018-05-03T21:02:12.157Z,96661.39
2018-05-03T21:04:39.993Z,96666.52
2018-05-03T21:07:07.803Z,96666.11
2018-05-03T21:09:35.624Z,96666.20
2018-05-03T21:12:03.499Z,96671.33
2018-05-03T21:14:31.247Z,96671.81
2018-05-03T21:16:59.123Z,96675.66
2018-05-03T21:19:26.998Z,96675.66
2018-05-03T21:21:54.840Z,96674.83
2018-05-03T21:24:22.657Z,96674.86
2018-05-03T21:26:50.141Z,96669.77
2018-05-03T21:29:17.975Z,96669.04
2018-05-03T21:31:45.817Z,96672.14
2018-05-03T21:34:13.669Z,96678.59
2018-05-03T21:36:41.526Z,96683.38
2018-05-03T21:39:09.501Z,96681.72
2018-05-03T21:41:37.369Z,96689.42
2018-05-03T21:44:05.203Z,96702.67
2018-05-03T21:46:33.123Z,96705.28
2018-05-03T21:49:00.844Z,96703.20
2018-05-03T21:51:28.680Z,96710.08
2018-05-03T21:53:56.551Z,96706.72
2018-05-03T21:56:24.368Z,96716.59
2018-05-03T21:58:52.214Z,96713.66
2018-05-03T22:01:20.032Z,96718.80
2018-05-03T22:03:47.864Z,96727.35
2018-05-03T22:06:15.739Z,96729.51
2018-05-03T22:08:43.549Z,96723.59
2018-05-03T22:11:11.347Z,96725.34
2018-05-03T22:13:39.163Z,96734.36
2018-05-03T22:16:07.059Z,96723.33
2018-05-03T22:18:34.871Z,96724.22
2018-05-03T22:21:02.668Z,96722.98
2018-05-03T22:23:30.433Z,96729.39
2018-05-03T22:25:58.287Z,96735.41
2018-05-03T22:28:26.085Z,96741.44
2018-05-03T22:30:53.882Z,96747.02
2018-05-03T22:33:21.591Z,96745.76
2018-05-03T22:35:49.404Z,96746.63
2018-05-03T22:38:17.206Z,96750.05
2018-05-03T22:40:45.155Z,96750.95
2018-05-03T22:43:12.937Z,96748.02
2018-05-03T22:45:40.763Z,96747.21
2018-05-03T22:48:10.985Z,96755.79
2018-05-03T22:53:16.102Z,96749.89
2018-05-03T22:55:43.973Z,96747.73
2018-05-03T22:58:11.802Z,96752.02
2018-05-03T23:00:39.595Z,96753.34
2018-05-03T23:03:07.468Z,96749.99
2018-05-03T23:05:35.955Z,96758.97
2018-05-03T23:11:03.336Z,96749.69
2018-05-03T23:13:31.114Z,96755.22
2018-05-03T23:18:35.984Z,96745.46
2018-05-03T23:21:03.797Z,96748.48
2018-05-03T23:23:31.774Z,96748.06
2018-05-03T23:26:10.055Z,96756.14
2018-05-03T23:31:15.716Z,96746.79
2018-05-03T23:33:43.543Z,96749.81
2018-05-03T23:36:11.379Z,96747.25
2018-05-03T23:38:48.574Z,96746.38
2018-05-03T23:41:16.375Z,96757.02
2018-05-03T23:43:44.193Z,96765.98
2018-05-03T23:46:11.979Z,96766.39
2018-05-03T23:48:49.274Z,96771.07
2018-05-03T23:51:16.859Z,96768.96
2018-05-03T23:53:44.805Z,96771.47
2018-05-03T23:56:12.589Z,96759.55
2018-05-03T23:58:49.847Z,96763.84
